• Join FlightAware (Why Join?)
  • Login
  • US Flag 
07:27AM EST


 

Airport Tracker/Info


-or-


 

Live Flight TrackerFlight Track Log ✈ CTL61 ✈ 25-Apr-2013 ✈ KBLF - KCRW

Flight Track Log - Related Links

Times and Time Zones

All times are in EDT time to prevent confusion due to time zone crossing. See the CTL61 flight status page for this flight to view local times or setup timezone preferences in your user account.

Time Position Orientation Groundspeed Altitude Reporting Facility
EDT Latitude Longitude Course Direction KTS MPH feet Rate Location/Type
10:58PM 37.3161 -81.2611 346° North 103 119 5,700  Level Indianapolis Center
10:59PM 37.3517 -81.2719 346° North 114 131 6,000 180 Climbing Indianapolis Center
11:00PM 37.3931 -81.2861 345° North 146 168 6,100  Climbing Indianapolis Center
11:01PM 37.4422 -81.3042 344° North 155 178 6,100  Level Indianapolis Center
11:02PM 37.4814 -81.3172 345° North 152 175 6,100 -60 Level Indianapolis Center
11:03PM 37.5242 -81.3344 342° North 160 184 6,000 -60 Descending Indianapolis Center
11:04PM 37.5664 -81.3464 347° North 159 183 6,000  Level Indianapolis Center
11:05PM 37.6092 -81.3586 347° North 161 185 6,000  Level Indianapolis Center
11:06PM 37.6611 -81.3764 345° North 163 188 6,000  Level Indianapolis Center
11:07PM 37.7031 -81.3883 347° North 166 191 6,000  Level Indianapolis Center
11:08PM 37.7478 -81.4025 346° North 162 186 6,000 -60 Level Indianapolis Center
11:09PM 37.7917 -81.4158 347° North 163 188 5,900  Descending Indianapolis Center
11:10PM 37.8372 -81.4292 347° North 166 191 6,000  Climbing Indianapolis Center
11:11PM 37.8811 -81.4414 348° North 162 186 6,000  Level Indianapolis Center
11:12PM 37.9250 -81.4567 345° North 162 186 6,000  Level Indianapolis Center
11:13PM 37.9789 -81.4714 348° North 164 189 6,000 -120 Level Indianapolis Center
11:14PM 38.0239 -81.4853 346° North 165 190 5,800 -360 Descending Indianapolis Center
11:15PM 38.0714 -81.4997 347° North 172 198 5,300 -600 Descending Indianapolis Center
11:16PM 38.1192 -81.5147 346° North 176 203 4,700 -540 Descending Indianapolis Center
11:17PM 38.1658 -81.5289 347° North 173 199 4,300 -540 Descending Indianapolis Center
11:19PM 38.2119 -81.5428 347° North 172 198 3,700 -600 Descending Indianapolis Center
11:20PM 38.2578 -81.5572 346° North 170 196 3,100 -540 Descending Indianapolis Center
11:21PM 38.3025 -81.5706 347° North 168 193 2,700 -360 Descending Indianapolis Center
11:22PM 38.3442 -81.5703 360° North 161 185 2,400 -420 Descending Indianapolis Center
11:23PM 38.3717 -81.5411 40° Northeast 142 163 1,900 -480 Descending Indianapolis Center
11:24PM 38.3917 -81.5622 320° Northwest 114 131 1,500 -360 Descending Indianapolis Center
11:25PM 38.3906 -81.5994 268° West 105 121 1,200 -300 Descending Indianapolis Center